Camden, Illinois
Current Conditions -  °F | °C
As of 9:15 PM on Wednesday 22 Oct 2014 (Local Time) from KMQB Reporting Station
Clear Clear  
Wind Chill: 41°   Ceiling: Unl
Heat Index: 41°   Visibility: 10mi
Dew Point: 37°   Wind: 3mph
Humidity: 85%   Direction: 90°E
Pressure: 30.26"   Gusts: NA
Location:  40.15°N, 90.77°W
Report Text: KMQB 230215Z AUTO 09003KT 10SM CLR 05/03 A3026 RMK AO2 T00480025
Loading
Personal Weather Stations






























Interactive Weather Map
Tropical Storm Tracking
New forecast layout! Learn more

10-Day Weather Forecast

Advertisements
Track Severe Weather on mobile